> Flugplatz > 
Stacks Image 3
Aktuelle METAR Daten (Memmingen, Friedrichshafen, Laupheim):
2018/04/27 07:50 EDJA 270750Z 07008KT CAVOK 11/05 Q1013
2018/04/27 07:50 EDNY 270750Z 02004KT CAVOK 13/06 Q1013
2018/04/27 07:20 ETHL 270720Z 09008KT 9999 FEW180 SCT320 10/03 Q1015 BLU+BLU+
Sicherheits- und Servicehinweise:

Bitte achten Sie beim Anflug auf mögliche Fall­schirm­springer auf der Nordseite des Platzes, kontaktieren Sie zur Sicherheit den Flugleiter auf Leutkirch INFO 122,880.

Zollabfertigung:
für Ein- und Ausflug bei Voranmeldung mindestens 3 Stunden, nur Personenverkehr – keine Warenabfertigung.

Günstig Tanken:
AvGas 100LL · Jet A1l

Aktuelles:

Sommerflugbetrieb:
Der Flugplatz ist Mo bis Sa
von 09:00 bis SS+30/20:00 Uhr (loc),
So + Feiertags ab 10:30 bis SS+30/20:00 Uhr (loc) geöffnet.

Weitere Informationen finden Sie in unserem Newsbereich.

Nutzen Sie unsere Online-Anmeldung zur Zoll- und Passkontrolle.